Time;durP1;ratioP1;P1;durP2;ratioP2;P2;SDS_P1;SDS_P2;PMS_P1;PMS_P2;Temp;Humidity;BMP_temperature;BMP_pressure;BME280_temperature;BME280_humidity;BME280_pressure;Samples;Min_cycle;Max_cycle;Signal;HPM_P1;HPM_P2
2022/11/17 00:00:12;;;;;;;9.07;4.67;;;10.40;99.90;;;;;;5033537;28;20203;-80
2022/11/17 00:02:39;;;;;;;11.40;5.67;;;10.30;99.90;;;;;;5033312;28;20203;-79
2022/11/17 00:05:06;;;;;;;8.33;5.50;;;10.30;99.90;;;;;;5034021;28;20199;-77
2022/11/17 00:07:34;;;;;;;8.33;5.37;;;10.30;99.90;;;;;;5033394;28;20217;-77
2022/11/17 00:10:01;;;;;;;11.00;5.37;;;10.40;99.90;;;;;;5032958;28;20211;-78
2022/11/17 00:15:12;;;;;;;12.67;5.87;;;10.40;99.90;;;;;;5033377;28;20295;-79
2022/11/17 00:17:39;;;;;;;14.00;5.93;;;10.40;99.90;;;;;;5032998;28;20619;-78
2022/11/17 00:22:55;;;;;;;12.20;4.93;;;10.30;99.90;;;;;;5033448;28;20188;-77
2022/11/17 00:25:22;;;;;;;8.80;4.93;;;10.30;99.90;;;;;;5032916;28;20289;-79
2022/11/17 00:27:49;;;;;;;14.10;5.80;;;10.40;99.90;;;;;;5033906;28;20198;-80
2022/11/17 00:35:50;;;;;;;12.63;4.50;;;10.30;99.90;;;;;;5033914;28;20337;-80
2022/11/17 00:38:19;;;;;;;10.43;4.17;;;10.40;99.90;;;;;;5032364;28;20194;-80
2022/11/17 00:40:46;;;;;;;8.20;4.13;;;10.40;99.90;;;;;;5033380;28;20202;-79
2022/11/17 00:43:13;;;;;;;7.93;4.13;;;10.40;99.90;;;;;;5033544;28;20210;-79
2022/11/17 00:45:39;;;;;;;11.70;4.20;;;10.40;99.90;;;;;;5032363;28;20663;-81
2022/11/17 00:48:07;;;;;;;11.40;4.97;;;10.40;99.90;;;;;;5033228;28;20215;-78
2022/11/17 00:50:33;;;;;;;8.17;4.07;;;10.40;99.90;;;;;;5032769;28;20269;-79
2022/11/17 00:53:00;;;;;;;7.30;4.10;;;10.40;99.90;;;;;;5032854;28;20199;-78
2022/11/17 00:55:28;;;;;;;5.47;3.60;;;10.40;99.90;;;;;;5033308;28;20533;-78
2022/11/17 00:57:55;;;;;;;10.03;3.87;;;10.40;99.90;;;;;;5033320;28;20654;-78
2022/11/17 01:00:22;;;;;;;6.37;3.83;;;10.40;99.90;;;;;;5032918;28;20209;-78
2022/11/17 01:02:49;;;;;;;9.17;3.87;;;10.40;99.90;;;;;;5032995;28;20206;-80
2022/11/17 01:05:16;;;;;;;10.27;4.33;;;10.40;99.90;;;;;;5033177;28;20294;-80
2022/11/17 01:07:43;;;;;;;6.40;4.20;;;10.40;99.90;;;;;;5047840;28;20288;-79
2022/11/17 01:10:10;;;;;;;8.47;3.80;;;10.40;99.90;;;;;;5033231;28;20217;-80
2022/11/17 01:12:38;;;;;;;7.03;4.60;;;10.40;99.90;;;;;;5032725;28;20218;-78
2022/11/17 01:15:06;;;;;;;8.40;4.77;;;10.40;99.90;;;;;;5032827;28;20218;-79
2022/11/17 01:17:32;;;;;;;8.60;4.53;;;10.40;99.90;;;;;;5033142;28;20206;-79
2022/11/17 01:19:59;;;;;;;6.87;3.80;;;10.40;99.90;;;;;;5047028;28;20829;-79
2022/11/17 01:22:26;;;;;;;7.70;4.63;;;10.40;99.90;;;;;;5052831;28;20514;-78
2022/11/17 01:24:53;;;;;;;10.47;4.77;;;10.40;99.90;;;;;;5034707;28;20217;-79
2022/11/17 01:27:20;;;;;;;5.80;4.40;;;10.50;99.90;;;;;;5031867;28;20206;-79
2022/11/17 01:29:48;;;;;;;8.47;4.87;;;10.50;99.90;;;;;;5032849;28;20198;-79
2022/11/17 01:32:15;;;;;;;8.67;4.67;;;10.50;99.90;;;;;;5032890;28;20198;-80
2022/11/17 01:34:41;;;;;;;5.57;4.40;;;10.50;99.90;;;;;;5032336;28;20308;-80
2022/11/17 01:37:20;;;;;;;9.20;4.60;;;10.50;99.90;;;;;;5032313;28;20203;-78
2022/11/17 01:39:48;;;;;;;8.90;5.17;;;10.50;99.90;;;;;;5032815;28;20213;-79
2022/11/17 01:42:17;;;;;;;13.10;4.57;;;10.50;99.90;;;;;;5031989;28;20396;-80
2022/11/17 01:44:55;;;;;;;7.50;4.80;;;10.50;99.90;;;;;;5036480;28;20665;-79
2022/11/17 01:47:27;;;;;;;6.80;4.10;;;10.50;99.90;;;;;;5052189;28;20220;-78
2022/11/17 01:49:58;;;;;;;6.63;4.27;;;10.50;99.90;;;;;;5050141;28;20735;-78
2022/11/17 01:52:25;;;;;;;7.50;4.27;;;10.50;99.90;;;;;;5052659;28;20494;-78
2022/11/17 01:54:54;;;;;;;6.50;3.93;;;10.50;99.90;;;;;;5050672;28;20233;-79
2022/11/17 01:57:25;;;;;;;7.97;4.97;;;10.50;99.90;;;;;;5051915;28;20251;-79
2022/11/17 01:59:56;;;;;;;5.03;3.37;;;10.50;99.90;;;;;;5051789;28;20214;-79
2022/11/17 02:02:23;;;;;;;11.30;4.20;;;10.50;99.90;;;;;;5042397;28;20201;-78
2022/11/17 02:04:55;;;;;;;4.27;3.73;;;10.50;99.90;;;;;;5036284;28;20194;-78
2022/11/17 02:07:25;;;;;;;5.73;3.80;;;10.50;99.90;;;;;;5035616;28;20219;-79
2022/11/17 02:09:53;;;;;;;6.23;4.00;;;10.50;99.90;;;;;;5035085;28;20190;-79
2022/11/17 02:12:21;;;;;;;4.73;4.00;;;10.50;99.90;;;;;;5036223;28;20229;-79
2022/11/17 02:14:49;;;;;;;6.80;4.47;;;10.60;99.90;;;;;;5035691;28;20222;-78
2022/11/17 02:17:20;;;;;;;5.10;3.70;;;10.60;99.90;;;;;;5035056;28;20232;-77
2022/11/17 02:19:53;;;;;;;7.40;3.77;;;10.60;99.90;;;;;;5035930;28;20217;-79
2022/11/17 02:22:34;;;;;;;7.87;3.77;;;10.60;99.90;;;;;;5036509;28;20198;-78
2022/11/17 02:25:20;;;;;;;5.37;4.33;;;10.60;99.90;;;;;;5034880;28;20198;-80
2022/11/17 02:28:02;;;;;;;6.27;4.17;;;10.60;99.90;;;;;;5035803;28;20210;-81
2022/11/17 02:30:37;;;;;;;6.57;3.93;;;10.60;99.90;;;;;;5035303;28;20285;-78
2022/11/17 02:33:11;;;;;;;6.07;3.93;;;10.60;99.90;;;;;;5035035;28;20197;-78
2022/11/17 02:35:48;;;;;;;4.63;3.63;;;10.60;99.90;;;;;;5035583;28;20246;-78
2022/11/17 02:38:25;;;;;;;5.50;3.80;;;10.60;99.90;;;;;;5034888;28;20201;-78
2022/11/17 02:40:57;;;;;;;4.33;3.47;;;10.60;99.90;;;;;;5040706;28;20238;-80
2022/11/17 02:46:21;;;;;;;5.00;3.60;;;10.60;99.90;;;;;;5054440;28;20303;-77
2022/11/17 02:48:54;;;;;;;4.67;3.60;;;10.70;99.90;;;;;;5040751;28;20532;-79
2022/11/17 02:51:24;;;;;;;5.07;3.37;;;10.60;99.90;;;;;;5034724;28;20783;-79
2022/11/17 02:53:53;;;;;;;4.80;3.27;;;10.70;99.90;;;;;;5035337;28;20209;-80
2022/11/17 02:56:20;;;;;;;4.23;3.50;;;10.70;99.90;;;;;;5035365;28;20218;-79
2022/11/17 02:58:52;;;;;;;6.03;3.53;;;10.70;99.90;;;;;;5034509;28;20218;-80
2022/11/17 03:01:50;;;;;;;5.23;3.03;;;10.70;99.90;;;;;;5034998;28;20286;-81
2022/11/17 03:04:33;;;;;;;7.03;2.90;;;10.70;99.90;;;;;;5034846;28;20229;-78
2022/11/17 03:07:11;;;;;;;3.90;3.27;;;10.70;99.90;;;;;;5034403;28;20286;-78
2022/11/17 03:09:47;;;;;;;6.03;3.90;;;10.80;99.90;;;;;;5035206;28;20355;-77
2022/11/17 03:12:20;;;;;;;7.80;3.70;;;10.80;99.90;;;;;;5033891;28;20199;-78
2022/11/17 03:14:56;;;;;;;4.20;3.73;;;10.80;99.90;;;;;;5034849;28;20221;-80
2022/11/17 03:17:29;;;;;;;5.43;3.87;;;10.80;99.90;;;;;;5035303;28;20202;-85
2022/11/17 03:20:01;;;;;;;11.37;4.50;;;10.80;99.90;;;;;;5036962;28;20203;-87
2022/11/17 03:22:35;;;;;;;5.73;4.20;;;10.80;99.90;;;;;;5037365;28;20286;-85
2022/11/17 03:25:06;;;;;;;7.07;4.03;;;10.80;99.90;;;;;;5037075;28;20583;-85
2022/11/17 03:27:37;;;;;;;5.80;4.03;;;10.90;99.90;;;;;;5036797;28;20199;-88
2022/11/17 03:30:09;;;;;;;7.17;4.47;;;10.90;99.90;;;;;;5037038;28;20588;-87
2022/11/17 03:32:39;;;;;;;8.30;4.87;;;10.90;99.90;;;;;;5037201;28;20190;-86
2022/11/17 03:35:09;;;;;;;8.43;4.60;;;10.90;99.90;;;;;;5036389;28;20647;-87
2022/11/17 03:37:42;;;;;;;9.13;4.03;;;10.90;99.90;;;;;;5036806;28;20191;-85
2022/11/17 03:40:11;;;;;;;6.80;3.60;;;10.90;99.90;;;;;;5039628;28;20206;-84
2022/11/17 03:42:42;;;;;;;4.47;4.03;;;10.90;99.90;;;;;;5056646;28;20198;-86
2022/11/17 03:45:15;;;;;;;6.77;4.03;;;10.90;99.90;;;;;;5056174;28;20229;-86
2022/11/17 03:47:43;;;;;;;5.63;3.70;;;10.90;99.90;;;;;;5050004;28;20210;-87
2022/11/17 03:50:15;;;;;;;6.17;3.70;;;10.90;99.90;;;;;;5036235;28;20746;-86
2022/11/17 03:52:43;;;;;;;5.93;3.33;;;10.90;99.90;;;;;;5035419;28;20657;-78
2022/11/17 03:55:11;;;;;;;8.67;3.27;;;10.90;99.90;;;;;;5036085;28;20240;-86
2022/11/17 03:57:43;;;;;;;8.17;3.70;;;10.90;99.90;;;;;;5039930;28;20198;-79
2022/11/17 04:00:16;;;;;;;3.57;3.27;;;10.90;99.90;;;;;;5053745;28;20211;-78
2022/11/17 04:02:46;;;;;;;5.83;3.10;;;10.90;99.90;;;;;;5052392;28;20202;-80
2022/11/17 04:05:17;;;;;;;5.83;2.80;;;11.00;99.90;;;;;;5046845;28;20657;-77
2022/11/17 04:07:46;;;;;;;8.97;3.60;;;11.00;99.90;;;;;;5033582;28;20673;-81
2022/11/17 04:10:15;;;;;;;5.13;3.27;;;11.00;99.90;;;;;;5033464;28;20205;-79
2022/11/17 04:18:13;;;;;;;6.33;2.93;;;11.00;99.90;;;;;;5025258;28;20233;-87
2022/11/17 04:20:40;;;;;;;8.33;3.50;;;11.00;99.90;;;;;;5036145;28;20517;-86
2022/11/17 04:23:10;;;;;;;5.57;3.13;;;11.00;99.90;;;;;;5051412;28;20210;-85
2022/11/17 04:28:39;;;;;;;3.50;2.23;;;11.00;99.90;;;;;;5039365;28;20722;-86
2022/11/17 04:31:10;;;;;;;7.07;2.97;;;11.10;99.90;;;;;;5035300;28;20422;-86
2022/11/17 04:33:39;;;;;;;8.80;2.60;;;11.00;99.90;;;;;;5035315;28;20615;-86
2022/11/17 04:36:07;;;;;;;7.20;2.37;;;11.00;99.90;;;;;;5034635;28;20215;-84
2022/11/17 04:38:34;;;;;;;6.47;2.33;;;11.00;99.90;;;;;;5036146;28;20482;-86
2022/11/17 04:43:47;;;;;;;4.13;2.00;;;11.10;99.90;;;;;;5035105;28;20675;-86
2022/11/17 04:46:16;;;;;;;4.83;1.90;;;11.10;99.90;;;;;;5035079;28;20238;-86
2022/11/17 04:48:43;;;;;;;8.37;2.73;;;11.10;99.90;;;;;;5035145;28;20282;-86
2022/11/17 04:51:10;;;;;;;4.83;2.43;;;11.10;99.90;;;;;;5034814;28;20224;-83
2022/11/17 04:53:38;;;;;;;5.90;3.07;;;11.10;99.90;;;;;;5034863;28;20289;-84
2022/11/17 04:56:05;;;;;;;4.57;2.60;;;11.10;99.90;;;;;;5034656;28;20643;-82
2022/11/17 04:58:32;;;;;;;3.13;2.20;;;11.10;99.90;;;;;;5034604;28;20213;-86
2022/11/17 05:01:11;;;;;;;4.43;2.10;;;11.10;99.90;;;;;;5034565;28;20289;-85
2022/11/17 05:03:40;;;;;;;5.03;2.27;;;11.10;99.90;;;;;;5033490;28;20278;-85
2022/11/17 05:06:07;;;;;;;4.80;2.57;;;11.10;99.90;;;;;;5032359;28;20195;-84
2022/11/17 05:08:35;;;;;;;5.20;2.50;;;11.10;99.90;;;;;;5044531;28;20629;-83
2022/11/17 05:13:49;;;;;;;6.50;2.40;;;11.20;99.90;;;;;;5053636;28;20494;-82
2022/11/17 05:19:01;;;;;;;3.97;2.53;;;11.10;99.90;;;;;;5049198;28;20189;-87
2022/11/17 05:21:28;;;;;;;6.10;2.57;;;11.10;99.90;;;;;;5034747;28;20693;-85
2022/11/17 05:23:54;;;;;;;6.03;2.83;;;11.10;99.90;;;;;;5034375;28;20285;-88
2022/11/17 05:26:23;;;;;;;6.57;2.70;;;11.10;99.90;;;;;;5034169;28;20285;-86
2022/11/17 05:28:50;;;;;;;5.07;2.80;;;11.10;99.90;;;;;;5034684;28;20201;-88
2022/11/17 05:31:17;;;;;;;4.37;2.53;;;11.10;99.90;;;;;;5034567;28;20606;-85
2022/11/17 05:33:44;;;;;;;2.93;2.43;;;11.10;99.90;;;;;;5034042;28;20198;-88
2022/11/17 05:36:12;;;;;;;2.67;2.30;;;11.00;99.90;;;;;;5033662;28;20226;-80
2022/11/17 05:38:40;;;;;;;5.30;2.40;;;11.10;99.90;;;;;;5034355;28;20206;-88
2022/11/17 05:41:07;;;;;;;2.57;2.30;;;11.10;99.90;;;;;;5038862;28;20202;-85
2022/11/17 05:43:34;;;;;;;5.37;2.40;;;11.00;99.90;;;;;;5034999;28;20203;-87
2022/11/17 05:46:01;;;;;;;4.70;2.70;;;11.00;99.90;;;;;;5034354;28;20257;-88
2022/11/17 05:48:27;;;;;;;3.53;2.03;;;11.00;99.90;;;;;;5034282;28;20212;-86
2022/11/17 05:50:55;;;;;;;6.23;2.70;;;11.00;99.90;;;;;;5034790;28;20233;-84
2022/11/17 05:53:24;;;;;;;4.70;2.40;;;11.00;99.90;;;;;;5034464;28;20198;-88
2022/11/17 05:55:51;;;;;;;5.27;2.13;;;11.00;99.90;;;;;;5033631;28;20546;-86
2022/11/17 05:58:25;;;;;;;3.37;2.47;;;11.00;99.90;;;;;;5034037;28;20277;-87
2022/11/17 06:00:53;;;;;;;4.73;3.13;;;11.00;99.90;;;;;;5032321;28;20194;-81
2022/11/17 06:03:22;;;;;;;3.53;2.17;;;11.00;99.90;;;;;;5031652;28;20309;-79
2022/11/17 06:05:49;;;;;;;5.67;2.40;;;11.00;99.90;;;;;;5031608;28;20218;-79
2022/11/17 06:08:17;;;;;;;5.73;2.57;;;11.00;99.90;;;;;;5031616;28;20199;-80
2022/11/17 06:10:45;;;;;;;4.47;3.23;;;11.00;99.90;;;;;;5032111;28;20198;-79
2022/11/17 06:13:12;;;;;;;5.17;2.60;;;11.00;99.90;;;;;;5037230;28;20300;-78
2022/11/17 06:15:39;;;;;;;4.27;2.80;;;11.00;99.90;;;;;;5047576;28;20799;-81
2022/11/17 06:18:12;;;;;;;3.73;2.87;;;11.00;99.90;;;;;;5032356;28;20214;-79
2022/11/17 06:20:42;;;;;;;5.67;2.90;;;11.00;99.90;;;;;;5032458;28;20206;-79
2022/11/17 06:23:11;;;;;;;4.13;2.70;;;11.00;99.90;;;;;;5031433;28;20209;-79
2022/11/17 06:25:39;;;;;;;7.53;3.37;;;11.00;99.90;;;;;;5033737;28;20209;-88
2022/11/17 06:28:11;;;;;;;5.13;3.30;;;10.90;99.90;;;;;;5034063;28;20211;-90
2022/11/17 06:30:39;;;;;;;6.43;3.17;;;10.90;99.90;;;;;;5034195;28;20195;-89
2022/11/17 06:33:08;;;;;;;5.43;2.70;;;10.90;99.90;;;;;;5032086;28;20207;-79
2022/11/17 06:35:36;;;;;;;4.27;2.93;;;10.90;99.90;;;;;;5031272;28;20198;-79
2022/11/17 06:38:03;;;;;;;5.27;2.90;;;10.90;99.90;;;;;;5031699;28;20195;-80
2022/11/17 06:40:30;;;;;;;4.53;3.47;;;11.00;99.90;;;;;;5031837;28;20613;-82
2022/11/17 06:43:09;;;;;;;6.10;3.33;;;11.00;99.90;;;;;;5031162;28;20213;-81
2022/11/17 06:45:39;;;;;;;5.47;3.30;;;10.90;99.90;;;;;;5031502;28;20236;-80
2022/11/17 06:48:07;;;;;;;3.20;2.90;;;11.00;99.90;;;;;;5034226;28;20198;-80
2022/11/17 06:50:34;;;;;;;3.03;2.73;;;11.00;99.90;;;;;;5041865;28;20244;-79
2022/11/17 06:53:03;;;;;;;3.97;2.63;;;10.90;99.90;;;;;;5034721;28;20591;-80
2022/11/17 06:55:30;;;;;;;3.97;2.63;;;10.90;99.90;;;;;;5034532;28;20203;-80
2022/11/17 06:58:01;;;;;;;4.47;2.57;;;10.90;99.90;;;;;;5034836;28;20218;-80
2022/11/17 07:00:29;;;;;;;5.57;2.70;;;10.90;99.90;;;;;;5034642;28;20609;-80
2022/11/17 07:03:02;;;;;;;3.20;2.40;;;10.90;99.90;;;;;;5035017;28;20194;-79
2022/11/17 07:05:29;;;;;;;3.70;2.20;;;10.90;99.90;;;;;;5044069;28;20685;-80
2022/11/17 07:07:57;;;;;;;2.13;2.00;;;10.90;99.90;;;;;;5055041;28;20772;-80
2022/11/17 07:10:24;;;;;;;3.43;3.00;;;11.00;99.90;;;;;;5054183;28;20630;-79
2022/11/17 07:12:51;;;;;;;5.33;2.83;;;11.00;99.90;;;;;;5035572;28;20802;-84
2022/11/17 07:15:18;;;;;;;4.77;2.90;;;10.90;99.90;;;;;;5036466;28;20631;-85
2022/11/17 07:17:45;;;;;;;7.43;3.17;;;11.00;99.90;;;;;;5035847;28;20228;-87
2022/11/17 07:20:14;;;;;;;4.80;2.83;;;11.00;99.90;;;;;;5036212;28;20195;-86
2022/11/17 07:22:41;;;;;;;4.87;2.83;;;11.00;99.90;;;;;;5036060;28;20202;-88
2022/11/17 07:25:09;;;;;;;5.53;3.27;;;11.00;99.90;;;;;;5036565;28;20302;-86
2022/11/17 07:27:36;;;;;;;6.40;3.33;;;11.00;99.90;;;;;;5036683;28;20213;-84
2022/11/17 07:30:03;;;;;;;6.60;3.20;;;11.00;99.90;;;;;;5037313;28;20198;-86
2022/11/17 07:32:32;;;;;;;4.30;2.87;;;11.00;99.90;;;;;;5036869;28;20509;-86
2022/11/17 07:35:00;;;;;;;5.13;3.50;;;11.00;99.90;;;;;;5036476;28;20503;-87
2022/11/17 07:37:32;;;;;;;4.60;3.07;;;11.00;99.90;;;;;;5036010;28;20576;-86
2022/11/17 07:39:59;;;;;;;4.83;3.73;;;11.00;99.90;;;;;;5034148;28;20638;-84
2022/11/17 07:42:26;;;;;;;7.10;4.13;;;11.00;99.90;;;;;;5035051;28;20202;-81
2022/11/17 07:44:52;;;;;;;8.77;4.70;;;11.00;99.90;;;;;;5034283;28;20255;-81
2022/11/17 07:47:20;;;;;;;6.43;4.17;;;11.00;99.90;;;;;;5034088;28;20289;-82
2022/11/17 07:49:47;;;;;;;7.37;4.23;;;11.00;99.90;;;;;;5044653;28;20226;-78
2022/11/17 07:52:13;;;;;;;8.87;3.90;;;11.00;99.90;;;;;;5037204;28;20202;-81
2022/11/17 07:54:41;;;;;;;7.93;4.53;;;11.00;99.90;;;;;;5033546;28;20218;-79
2022/11/17 07:57:08;;;;;;;5.00;3.27;;;10.90;99.90;;;;;;5033951;28;20232;-79
2022/11/17 07:59:35;;;;;;;7.67;3.00;;;10.90;99.90;;;;;;5033008;28;20211;-79
2022/11/17 08:02:02;;;;;;;7.73;3.10;;;10.90;99.90;;;;;;5041045;28;20198;-81
2022/11/17 08:04:29;;;;;;;8.30;3.10;;;10.90;99.90;;;;;;5042769;28;20626;-80
2022/11/17 08:06:56;;;;;;;8.40;3.10;;;10.90;99.90;;;;;;5045458;28;20201;-81
2022/11/17 08:09:23;;;;;;;7.47;2.67;;;10.90;99.90;;;;;;5042223;28;20203;-79
2022/11/17 08:11:51;;;;;;;7.17;2.63;;;10.90;99.90;;;;;;5036146;28;20209;-82
2022/11/17 08:14:18;;;;;;;7.27;2.80;;;10.90;99.90;;;;;;5034187;28;20205;-81
2022/11/17 08:16:45;;;;;;;6.77;3.47;;;10.80;99.90;;;;;;5032798;28;20226;-78
2022/11/17 08:19:13;;;;;;;6.93;2.73;;;10.80;99.90;;;;;;5034327;28;20199;-81
2022/11/17 08:21:40;;;;;;;2.97;2.30;;;10.80;99.90;;;;;;5033751;28;20210;-76
2022/11/17 08:24:07;;;;;;;4.90;2.40;;;10.80;99.90;;;;;;5033592;28;20290;-82
2022/11/17 08:26:34;;;;;;;4.40;2.30;;;10.80;99.90;;;;;;5041736;28;20198;-79
2022/11/17 08:29:03;;;;;;;5.63;2.60;;;10.80;99.90;;;;;;5045083;28;20275;-81
2022/11/17 08:31:30;;;;;;;4.43;2.30;;;10.80;99.90;;;;;;5042842;28;20503;-80
2022/11/17 08:33:57;;;;;;;7.07;2.53;;;10.80;99.90;;;;;;5041766;28;20213;-78
2022/11/17 08:36:24;;;;;;;6.10;2.60;;;10.80;99.90;;;;;;5037930;28;20225;-79
2022/11/17 08:38:50;;;;;;;5.27;2.50;;;10.70;99.90;;;;;;5041617;28;20210;-80
2022/11/17 08:41:18;;;;;;;5.20;2.60;;;10.80;99.90;;;;;;5047184;28;20202;-81
2022/11/17 08:43:45;;;;;;;5.23;2.73;;;10.80;99.90;;;;;;5041726;28;20491;-77
2022/11/17 08:46:14;;;;;;;3.53;2.30;;;10.80;99.90;;;;;;5042206;28;20248;-80
2022/11/17 08:48:41;;;;;;;6.60;3.57;;;10.70;99.90;;;;;;5042991;28;20487;-78
2022/11/17 08:51:08;;;;;;;8.87;3.23;;;10.80;99.90;;;;;;5039718;28;20215;-79
2022/11/17 08:53:35;;;;;;;4.83;2.83;;;10.70;99.90;;;;;;5040987;28;20211;-78
2022/11/17 08:56:06;;;;;;;6.23;3.47;;;10.70;99.90;;;;;;5042231;28;20280;-79
2022/11/17 08:58:38;;;;;;;3.40;2.70;;;10.70;99.90;;;;;;5041059;28;20275;-80
2022/11/17 09:01:08;;;;;;;3.43;3.13;;;10.70;99.90;;;;;;5043481;28;20232;-81
2022/11/17 09:03:36;;;;;;;3.87;3.03;;;10.70;99.90;;;;;;5049524;28;20213;-79
2022/11/17 09:06:04;;;;;;;4.60;3.10;;;10.70;99.90;;;;;;5043063;28;20225;-81
2022/11/17 09:08:31;;;;;;;5.80;3.00;;;10.60;99.90;;;;;;5032991;28;20194;-81
2022/11/17 09:10:58;;;;;;;4.87;2.67;;;10.60;99.90;;;;;;5032429;28;20210;-83
2022/11/17 09:13:25;;;;;;;3.87;2.57;;;10.70;99.90;;;;;;5046299;28;20202;-81
2022/11/17 09:15:52;;;;;;;4.13;2.57;;;10.70;99.90;;;;;;5038252;28;20204;-82
2022/11/17 09:18:19;;;;;;;7.37;3.03;;;10.60;99.90;;;;;;5041223;28;20512;-82
2022/11/17 09:20:47;;;;;;;11.87;3.00;;;10.60;99.90;;;;;;5051187;28;20200;-82
2022/11/17 09:23:14;;;;;;;5.73;2.83;;;10.70;99.90;;;;;;5072460;28;20638;-81
2022/11/17 09:25:41;;;;;;;4.30;2.50;;;10.60;99.90;;;;;;5058257;28;20205;-83
2022/11/17 09:28:07;;;;;;;6.77;2.90;;;10.70;99.90;;;;;;5035869;28;20194;-82
2022/11/17 09:30:34;;;;;;;6.53;2.90;;;10.60;99.90;;;;;;5047698;28;20206;-80
2022/11/17 09:33:01;;;;;;;5.83;2.70;;;10.70;99.90;;;;;;5052090;28;20216;-81
2022/11/17 09:35:28;;;;;;;5.80;2.73;;;10.60;99.90;;;;;;5058609;28;20193;-80
2022/11/17 09:38:00;;;;;;;6.73;2.90;;;10.70;99.90;;;;;;5044034;28;20634;-80
2022/11/17 09:40:28;;;;;;;5.07;2.07;;;10.60;99.90;;;;;;5059245;28;20246;-80
2022/11/17 09:42:55;;;;;;;6.70;3.07;;;10.60;99.90;;;;;;5071131;28;20197;-80
2022/11/17 09:45:27;;;;;;;6.17;2.63;;;10.60;99.90;;;;;;5055021;28;20230;-80
2022/11/17 09:47:58;;;;;;;5.57;2.10;;;10.60;99.90;;;;;;5031948;28;20202;-80
2022/11/17 09:50:29;;;;;;;8.80;2.40;;;10.60;99.90;;;;;;5031849;28;20225;-79
2022/11/17 09:53:03;;;;;;;4.17;2.10;;;10.60;99.90;;;;;;5033044;28;20187;-81
2022/11/17 09:55:33;;;;;;;5.60;2.10;;;10.50;99.90;;;;;;5051649;28;20197;-81
2022/11/17 09:58:17;;;;;;;6.60;2.17;;;10.50;99.90;;;;;;5048454;28;20218;-80
2022/11/17 10:00:47;;;;;;;6.43;2.70;;;10.60;99.90;;;;;;5038927;28;20205;-80
2022/11/17 10:03:18;;;;;;;4.80;1.97;;;10.60;99.90;;;;;;5052087;28;20206;-82
2022/11/17 10:05:46;;;;;;;7.70;2.00;;;10.60;99.90;;;;;;5035657;28;20213;-81
2022/11/17 10:08:19;;;;;;;5.80;1.53;;;10.50;99.90;;;;;;5032324;28;20201;-80
2022/11/17 10:10:48;;;;;;;2.97;1.73;;;10.50;99.90;;;;;;5032210;28;20194;-78
2022/11/17 10:13:23;;;;;;;6.43;1.90;;;10.60;99.90;;;;;;5031482;28;20301;-79
2022/11/17 10:15:54;;;;;;;4.20;1.90;;;10.60;99.90;;;;;;5031791;28;20199;-82
2022/11/17 10:18:21;;;;;;;5.57;1.77;;;10.60;99.90;;;;;;5032026;28;20235;-79
2022/11/17 10:20:48;;;;;;;5.57;2.00;;;10.50;99.90;;;;;;5032481;28;20205;-82
2022/11/17 10:23:18;;;;;;;4.37;1.93;;;10.60;99.90;;;;;;5034012;28;20198;-79
2022/11/17 10:25:47;;;;;;;4.60;1.63;;;10.60;99.90;;;;;;5035856;28;20201;-78
2022/11/17 10:28:26;;;;;;;2.73;1.50;;;10.60;99.90;;;;;;5035862;28;20191;-81
2022/11/17 10:30:55;;;;;;;4.53;1.70;;;10.60;99.90;;;;;;5035899;28;20212;-80
2022/11/17 10:33:37;;;;;;;5.50;1.80;;;10.60;99.90;;;;;;5035462;28;20207;-79
2022/11/17 10:36:08;;;;;;;5.07;1.83;;;10.70;99.90;;;;;;5035047;28;20206;-83
2022/11/17 10:38:36;;;;;;;2.93;1.80;;;10.70;99.90;;;;;;5035875;28;20670;-79
2022/11/17 10:41:03;;;;;;;4.20;1.70;;;10.60;99.90;;;;;;5036920;28;20286;-82
2022/11/17 10:43:34;;;;;;;4.17;2.07;;;10.70;99.90;;;;;;5074831;23;20236;-79
2022/11/17 10:46:04;;;;;;;5.80;1.80;;;10.70;99.90;;;;;;5076196;28;20201;-79
2022/11/17 10:48:33;;;;;;;8.13;2.07;;;10.70;99.90;;;;;;5075708;28;20199;-79
2022/11/17 10:51:01;;;;;;;4.83;2.20;;;10.70;99.90;;;;;;5062986;28;20703;-80
2022/11/17 10:53:32;;;;;;;8.83;2.33;;;10.70;99.90;;;;;;5055541;28;20201;-79
2022/11/17 10:56:10;;;;;;;4.63;2.43;;;10.70;99.90;;;;;;5055842;28;20224;-83
2022/11/17 10:59:03;;;;;;;5.47;2.80;;;10.70;99.90;;;;;;5055722;28;20275;-79
2022/11/17 11:01:32;;;;;;;8.73;2.57;;;10.70;99.90;;;;;;5055071;28;20509;-78
2022/11/17 11:03:59;;;;;;;3.43;2.37;;;10.70;99.90;;;;;;5055583;28;20603;-80
2022/11/17 11:06:28;;;;;;;5.87;2.37;;;10.80;99.90;;;;;;5071676;28;20209;-80
2022/11/17 11:08:59;;;;;;;7.47;2.70;;;10.70;99.90;;;;;;5075139;28;20209;-81
2022/11/17 11:11:44;;;;;;;7.30;2.20;;;10.70;99.90;;;;;;5074656;28;20488;-79
2022/11/17 11:14:19;;;;;;;10.47;2.57;;;10.70;99.90;;;;;;5063279;28;20217;-81
2022/11/17 11:16:48;;;;;;;5.17;1.90;;;10.70;99.90;;;;;;5059781;28;20185;-81
2022/11/17 11:19:16;;;;;;;7.20;2.03;;;10.70;99.90;;;;;;5072962;28;20232;-82
2022/11/17 11:22:03;;;;;;;6.97;2.03;;;10.60;99.90;;;;;;5055240;28;20704;-80
2022/11/17 11:24:38;;;;;;;4.83;2.13;;;10.70;99.90;;;;;;5059221;28;20197;-79
2022/11/17 11:27:23;;;;;;;4.30;2.10;;;10.70;99.90;;;;;;5074873;28;20203;-80
2022/11/17 11:30:00;;;;;;;5.63;2.13;;;10.60;99.90;;;;;;5074672;28;20356;-81
2022/11/17 11:32:39;;;;;;;3.57;1.83;;;10.60;99.90;;;;;;5067450;28;20220;-81
2022/11/17 11:35:44;;;;;;;4.50;2.17;;;10.60;99.90;;;;;;5052907;28;20638;-80
2022/11/17 11:38:24;;;;;;;4.77;2.10;;;10.70;99.90;;;;;;5031350;28;20304;-81
2022/11/17 11:41:02;;;;;;;4.27;2.23;;;10.60;99.90;;;;;;5053787;28;20190;-81
2022/11/17 11:43:39;;;;;;;4.57;2.07;;;10.60;99.90;;;;;;5054501;28;20329;-82
2022/11/17 11:46:12;;;;;;;5.70;1.97;;;10.60;99.90;;;;;;5054428;28;20185;-81
2022/11/17 11:48:40;;;;;;;7.40;2.97;;;10.60;99.90;;;;;;5054652;28;20212;-85
2022/11/17 11:51:13;;;;;;;4.17;2.03;;;10.60;99.90;;;;;;5059124;28;20241;-83
2022/11/17 11:53:47;;;;;;;4.73;2.10;;;10.60;99.90;;;;;;5074042;28;20482;-81
2022/11/17 11:56:21;;;;;;;5.57;2.10;;;10.60;99.90;;;;;;5079623;28;20303;-82
2022/11/17 11:58:54;;;;;;;7.13;2.33;;;10.50;99.90;;;;;;5072793;28;20927;-80
2022/11/17 12:01:23;;;;;;;3.27;1.73;;;10.50;99.90;;;;;;5073215;28;20284;-84
2022/11/17 12:03:58;;;;;;;4.60;2.07;;;10.60;99.90;;;;;;5094523;28;20197;-80
2022/11/17 12:06:42;;;;;;;9.33;2.57;;;10.60;99.90;;;;;;5094065;28;20189;-80
2022/11/17 12:09:43;;;;;;;4.17;1.50;;;10.60;99.90;;;;;;5065576;28;20209;-84
2022/11/17 12:12:16;;;;;;;5.90;2.33;;;10.50;99.90;;;;;;5086473;28;20246;-83
2022/11/17 12:15:09;;;;;;;6.33;1.80;;;10.50;99.90;;;;;;5071119;28;20249;-82
2022/11/17 12:17:37;;;;;;;5.23;1.80;;;10.50;99.90;;;;;;5093776;28;20224;-82
2022/11/17 12:20:05;;;;;;;7.40;1.87;;;10.50;99.90;;;;;;5085627;28;20561;-84
2022/11/17 12:22:51;;;;;;;6.20;1.63;;;10.50;99.90;;;;;;5072524;28;20209;-80
2022/11/17 12:25:19;;;;;;;3.97;1.80;;;10.60;99.90;;;;;;5070932;28;20202;-84
2022/11/17 12:27:49;;;;;;;4.13;2.00;;;10.60;99.90;;;;;;5093583;28;20196;-86
2022/11/17 12:30:53;;;;;;;6.93;1.87;;;10.50;99.90;;;;;;5076149;28;20582;-85
2022/11/17 12:33:20;;;;;;;7.20;2.30;;;10.60;99.90;;;;;;5059318;28;20307;-80
2022/11/17 12:36:31;;;;;;;5.53;1.60;;;10.60;99.90;;;;;;5073472;28;20215;-82
2022/11/17 12:38:59;;;;;;;5.13;1.70;;;10.60;99.90;;;;;;5049193;28;20304;-87
2022/11/17 12:42:04;;;;;;;6.13;1.50;;;10.60;99.90;;;;;;5076220;28;20207;-84
2022/11/17 12:44:56;;;;;;;5.73;2.03;;;10.60;99.90;;;;;;5091093;28;20504;-81
2022/11/17 12:47:26;;;;;;;6.97;1.97;;;10.60;99.90;;;;;;5062102;28;20754;-79
2022/11/17 12:50:21;;;;;;;4.27;1.60;;;10.60;99.90;;;;;;5062499;28;20313;-86
2022/11/17 12:52:59;;;;;;;3.47;1.50;;;10.60;99.90;;;;;;5091975;28;20204;-83
2022/11/17 12:55:40;;;;;;;6.70;2.00;;;10.60;99.90;;;;;;5077118;28;20208;-81
2022/11/17 12:58:19;;;;;;;7.27;1.70;;;10.60;99.90;;;;;;5056913;28;20783;-86
2022/11/17 13:00:55;;;;;;;8.90;2.00;;;10.60;99.90;;;;;;5074114;28;20620;-82
2022/11/17 13:03:28;;;;;;;3.70;1.73;;;10.60;99.90;;;;;;5080767;28;20615;-81
2022/11/17 13:06:07;;;;;;;3.53;1.67;;;10.60;99.90;;;;;;5065096;28;20221;-81
2022/11/17 13:08:34;;;;;;;6.67;2.13;;;10.60;99.90;;;;;;5073461;28;20205;-81
2022/11/17 13:11:06;;;;;;;4.00;1.30;;;10.60;99.90;;;;;;5073199;28;20205;-84
2022/11/17 13:13:34;;;;;;;6.33;1.70;;;10.60;99.90;;;;;;5062367;28;20212;-82
2022/11/17 13:16:01;;;;;;;5.17;2.10;;;10.60;99.90;;;;;;5058661;28;20224;-82
2022/11/17 13:18:32;;;;;;;3.70;1.70;;;10.50;99.90;;;;;;5065767;28;20212;-82
2022/11/17 13:21:00;;;;;;;4.13;1.67;;;10.50;99.90;;;;;;5070078;28;20220;-80
2022/11/17 13:23:29;;;;;;;3.57;1.70;;;10.50;99.90;;;;;;5086044;28;20204;-82
2022/11/17 13:26:10;;;;;;;7.43;1.67;;;10.50;99.90;;;;;;5060706;28;20194;-79
2022/11/17 13:28:37;;;;;;;3.93;2.27;;;10.50;99.90;;;;;;5094094;28;20185;-80
2022/11/17 13:31:04;;;;;;;5.23;1.90;;;10.50;99.90;;;;;;5074728;28;20212;-83
2022/11/17 13:33:32;;;;;;;3.80;1.50;;;10.50;99.90;;;;;;5093542;28;20197;-85